sensor_id;sensor_type;location;lat;lon;timestamp;temperature;humidity
66873;HTU21D;53781;51.090;5.884;2022-11-21T00:00:14;8.70;80.34
66873;HTU21D;53781;51.090;5.884;2022-11-21T00:00:30;8.68;80.33
66873;HTU21D;53781;51.090;5.884;2022-11-21T00:00:48;8.67;80.40
66873;HTU21D;53781;51.090;5.884;2022-11-21T00:01:25;8.67;80.39
66873;HTU21D;53781;51.090;5.884;2022-11-21T00:01:40;8.67;80.38
66873;HTU21D;53781;51.090;5.884;2022-11-21T00:01:55;8.68;80.43
66873;HTU21D;53781;51.090;5.884;2022-11-21T00:02:10;8.67;80.38
66873;HTU21D;53781;51.090;5.884;2022-11-21T00:02:24;8.67;80.43
66873;HTU21D;53781;51.090;5.884;2022-11-21T00:02:39;8.66;80.46
66873;HTU21D;53781;51.090;5.884;2022-11-21T00:02:59;8.66;80.45
66873;HTU21D;53781;51.090;5.884;2022-11-21T00:03:15;8.66;80.46
66873;HTU21D;53781;51.090;5.884;2022-11-21T00:03:29;8.66;80.49
66873;HTU21D;53781;51.090;5.884;2022-11-21T00:03:45;8.67;80.51
66873;HTU21D;53781;51.090;5.884;2022-11-21T00:03:59;8.67;80.49
66873;HTU21D;53781;51.090;5.884;2022-11-21T00:04:14;8.66;80.43
66873;HTU21D;53781;51.090;5.884;2022-11-21T00:04:29;8.65;80.43
66873;HTU21D;53781;51.090;5.884;2022-11-21T00:04:44;8.67;80.40
66873;HTU21D;53781;51.090;5.884;2022-11-21T00:04:59;8.65;80.40
66873;HTU21D;53781;51.090;5.884;2022-11-21T00:05:14;8.64;80.42
66873;HTU21D;53781;51.090;5.884;2022-11-21T00:05:30;8.65;80.41
66873;HTU21D;53781;51.090;5.884;2022-11-21T00:05:47;8.65;80.42
66873;HTU21D;53781;51.090;5.884;2022-11-21T00:06:02;8.64;80.42
66873;HTU21D;53781;51.090;5.884;2022-11-21T00:06:17;8.63;80.43
66873;HTU21D;53781;51.090;5.884;2022-11-21T00:06:32;8.63;80.52
66873;HTU21D;53781;51.090;5.884;2022-11-21T00:06:49;8.63;80.53
66873;HTU21D;53781;51.090;5.884;2022-11-21T00:07:04;8.61;80.62
66873;HTU21D;53781;51.090;5.884;2022-11-21T00:07:19;8.63;80.65
66873;HTU21D;53781;51.090;5.884;2022-11-21T00:07:33;8.62;80.59
66873;HTU21D;53781;51.090;5.884;2022-11-21T00:07:48;8.62;80.62
66873;HTU21D;53781;51.090;5.884;2022-11-21T00:08:03;8.62;80.65
66873;HTU21D;53781;51.090;5.884;2022-11-21T00:08:20;8.63;80.53
66873;HTU21D;53781;51.090;5.884;2022-11-21T00:08:35;8.62;80.53
66873;HTU21D;53781;51.090;5.884;2022-11-21T00:08:50;8.62;80.60
66873;HTU21D;53781;51.090;5.884;2022-11-21T00:09:05;8.64;80.52
66873;HTU21D;53781;51.090;5.884;2022-11-21T00:09:20;8.62;80.52
66873;HTU21D;53781;51.090;5.884;2022-11-21T00:09:34;8.63;80.57
66873;HTU21D;53781;51.090;5.884;2022-11-21T00:09:50;8.63;80.54
66873;HTU21D;53781;51.090;5.884;2022-11-21T00:10:05;8.62;80.50
66873;HTU21D;53781;51.090;5.884;2022-11-21T00:10:21;8.61;80.57
66873;HTU21D;53781;51.090;5.884;2022-11-21T00:10:37;8.62;80.53
66873;HTU21D;53781;51.090;5.884;2022-11-21T00:10:52;8.63;80.62
66873;HTU21D;53781;51.090;5.884;2022-11-21T00:11:07;8.60;80.56
66873;HTU21D;53781;51.090;5.884;2022-11-21T00:11:22;8.60;80.59
66873;HTU21D;53781;51.090;5.884;2022-11-21T00:11:36;8.61;80.61
66873;HTU21D;53781;51.090;5.884;2022-11-21T00:11:51;8.64;80.52
66873;HTU21D;53781;51.090;5.884;2022-11-21T00:12:06;8.62;80.62
66873;HTU21D;53781;51.090;5.884;2022-11-21T00:12:21;8.61;80.57
66873;HTU21D;53781;51.090;5.884;2022-11-21T00:12:35;8.62;80.56
66873;HTU21D;53781;51.090;5.884;2022-11-21T00:12:54;8.61;80.59
66873;HTU21D;53781;51.090;5.884;2022-11-21T00:13:15;8.61;80.59
66873;HTU21D;53781;51.090;5.884;2022-11-21T00:13:30;8.63;80.56
66873;HTU21D;53781;51.090;5.884;2022-11-21T00:13:45;8.60;80.51
66873;HTU21D;53781;51.090;5.884;2022-11-21T00:14:00;8.62;80.56
66873;HTU21D;53781;51.090;5.884;2022-11-21T00:14:14;8.63;80.58
66873;HTU21D;53781;51.090;5.884;2022-11-21T00:14:29;8.63;80.55
66873;HTU21D;53781;51.090;5.884;2022-11-21T00:14:44;8.62;80.52
66873;HTU21D;53781;51.090;5.884;2022-11-21T00:14:58;8.61;80.53
66873;HTU21D;53781;51.090;5.884;2022-11-21T00:15:13;8.62;80.55
66873;HTU21D;53781;51.090;5.884;2022-11-21T00:15:28;8.62;80.53
66873;HTU21D;53781;51.090;5.884;2022-11-21T00:15:43;8.62;80.50
66873;HTU21D;53781;51.090;5.884;2022-11-21T00:16:06;8.63;80.53
66873;HTU21D;53781;51.090;5.884;2022-11-21T00:16:21;8.63;80.45
66873;HTU21D;53781;51.090;5.884;2022-11-21T00:16:36;8.62;80.40
66873;HTU21D;53781;51.090;5.884;2022-11-21T00:16:51;8.62;80.41
66873;HTU21D;53781;51.090;5.884;2022-11-21T00:17:05;8.64;80.42
66873;HTU21D;53781;51.090;5.884;2022-11-21T00:17:20;8.62;80.49
66873;HTU21D;53781;51.090;5.884;2022-11-21T00:17:35;8.64;80.38
66873;HTU21D;53781;51.090;5.884;2022-11-21T00:17:50;8.64;80.40
66873;HTU21D;53781;51.090;5.884;2022-11-21T00:18:05;8.64;80.37
66873;HTU21D;53781;51.090;5.884;2022-11-21T00:18:20;8.62;80.36
66873;HTU21D;53781;51.090;5.884;2022-11-21T00:18:35;8.64;80.36
66873;HTU21D;53781;51.090;5.884;2022-11-21T00:18:50;8.62;80.33
66873;HTU21D;53781;51.090;5.884;2022-11-21T00:19:05;8.63;80.43
66873;HTU21D;53781;51.090;5.884;2022-11-21T00:19:20;8.68;80.25
66873;HTU21D;53781;51.090;5.884;2022-11-21T00:19:34;8.67;80.26
66873;HTU21D;53781;51.090;5.884;2022-11-21T00:19:49;8.65;80.30
66873;HTU21D;53781;51.090;5.884;2022-11-21T00:20:04;8.66;80.33
66873;HTU21D;53781;51.090;5.884;2022-11-21T00:20:21;8.66;80.29
66873;HTU21D;53781;51.090;5.884;2022-11-21T00:20:36;8.65;80.25
66873;HTU21D;53781;51.090;5.884;2022-11-21T00:20:50;8.66;80.24
66873;HTU21D;53781;51.090;5.884;2022-11-21T00:21:07;8.63;80.28
66873;HTU21D;53781;51.090;5.884;2022-11-21T00:21:23;8.66;80.30
66873;HTU21D;53781;51.090;5.884;2022-11-21T00:21:38;8.63;80.33
66873;HTU21D;53781;51.090;5.884;2022-11-21T00:21:53;8.63;80.27
66873;HTU21D;53781;51.090;5.884;2022-11-21T00:22:07;8.62;80.27
66873;HTU21D;53781;51.090;5.884;2022-11-21T00:22:22;8.65;80.28
66873;HTU21D;53781;51.090;5.884;2022-11-21T00:22:37;8.64;80.20
66873;HTU21D;53781;51.090;5.884;2022-11-21T00:22:52;8.63;80.20
66873;HTU21D;53781;51.090;5.884;2022-11-21T00:23:07;8.62;80.23
66873;HTU21D;53781;51.090;5.884;2022-11-21T00:23:22;8.62;80.20
66873;HTU21D;53781;51.090;5.884;2022-11-21T00:23:39;8.63;80.22
66873;HTU21D;53781;51.090;5.884;2022-11-21T00:23:54;8.62;80.26
66873;HTU21D;53781;51.090;5.884;2022-11-21T00:24:09;8.62;80.21
66873;HTU21D;53781;51.090;5.884;2022-11-21T00:24:23;8.64;80.24
66873;HTU21D;53781;51.090;5.884;2022-11-21T00:24:38;8.61;80.27
66873;HTU21D;53781;51.090;5.884;2022-11-21T00:24:53;8.61;80.33
66873;HTU21D;53781;51.090;5.884;2022-11-21T00:25:08;8.62;80.33
66873;HTU21D;53781;51.090;5.884;2022-11-21T00:25:23;8.60;80.33
66873;HTU21D;53781;51.090;5.884;2022-11-21T00:25:38;8.62;80.31
66873;HTU21D;53781;51.090;5.884;2022-11-21T00:25:53;8.63;80.30
66873;HTU21D;53781;51.090;5.884;2022-11-21T00:26:10;8.61;80.29
66873;HTU21D;53781;51.090;5.884;2022-11-21T00:26:25;8.61;80.24
66873;HTU21D;53781;51.090;5.884;2022-11-21T00:26:39;8.61;80.29
66873;HTU21D;53781;51.090;5.884;2022-11-21T00:26:54;8.60;80.31
66873;HTU21D;53781;51.090;5.884;2022-11-21T00:27:09;8.61;80.27
66873;HTU21D;53781;51.090;5.884;2022-11-21T00:27:24;8.61;80.31
66873;HTU21D;53781;51.090;5.884;2022-11-21T00:27:40;8.60;80.37
66873;HTU21D;53781;51.090;5.884;2022-11-21T00:27:55;8.61;80.36
66873;HTU21D;53781;51.090;5.884;2022-11-21T00:28:10;8.60;80.34
66873;HTU21D;53781;51.090;5.884;2022-11-21T00:28:24;8.61;80.37
66873;HTU21D;53781;51.090;5.884;2022-11-21T00:28:39;8.60;80.38
66873;HTU21D;53781;51.090;5.884;2022-11-21T00:28:54;8.61;80.33
66873;HTU21D;53781;51.090;5.884;2022-11-21T00:29:09;8.62;80.34
66873;HTU21D;53781;51.090;5.884;2022-11-21T00:29:24;8.60;80.27
66873;HTU21D;53781;51.090;5.884;2022-11-21T00:29:39;8.60;80.29
66873;HTU21D;53781;51.090;5.884;2022-11-21T00:29:53;8.58;80.27
66873;HTU21D;53781;51.090;5.884;2022-11-21T00:30:09;8.59;80.29
66873;HTU21D;53781;51.090;5.884;2022-11-21T00:30:24;8.60;80.27
66873;HTU21D;53781;51.090;5.884;2022-11-21T00:30:39;8.58;80.34
66873;HTU21D;53781;51.090;5.884;2022-11-21T00:30:54;8.57;80.43
66873;HTU21D;53781;51.090;5.884;2022-11-21T00:31:08;8.57;80.36
66873;HTU21D;53781;51.090;5.884;2022-11-21T00:31:31;8.56;80.32
66873;HTU21D;53781;51.090;5.884;2022-11-21T00:31:46;8.58;80.36
66873;HTU21D;53781;51.090;5.884;2022-11-21T00:32:00;8.57;80.37
66873;HTU21D;53781;51.090;5.884;2022-11-21T00:32:15;8.56;80.30
66873;HTU21D;53781;51.090;5.884;2022-11-21T00:32:30;8.55;80.36
66873;HTU21D;53781;51.090;5.884;2022-11-21T00:32:45;8.57;80.47
66873;HTU21D;53781;51.090;5.884;2022-11-21T00:33:00;8.56;80.41
66873;HTU21D;53781;51.090;5.884;2022-11-21T00:33:15;8.55;80.44
66873;HTU21D;53781;51.090;5.884;2022-11-21T00:33:30;8.56;80.42
66873;HTU21D;53781;51.090;5.884;2022-11-21T00:33:45;8.55;80.49
66873;HTU21D;53781;51.090;5.884;2022-11-21T00:34:00;8.56;80.41
66873;HTU21D;53781;51.090;5.884;2022-11-21T00:34:15;8.56;80.40
66873;HTU21D;53781;51.090;5.884;2022-11-21T00:34:30;8.53;80.40
66873;HTU21D;53781;51.090;5.884;2022-11-21T00:34:44;8.56;80.38
66873;HTU21D;53781;51.090;5.884;2022-11-21T00:34:59;8.53;80.42
66873;HTU21D;53781;51.090;5.884;2022-11-21T00:35:14;8.52;80.40
66873;HTU21D;53781;51.090;5.884;2022-11-21T00:35:30;8.52;80.36
66873;HTU21D;53781;51.090;5.884;2022-11-21T00:35:45;8.51;80.36
66873;HTU21D;53781;51.090;5.884;2022-11-21T00:36:07;8.51;80.40
66873;HTU21D;53781;51.090;5.884;2022-11-21T00:36:22;8.52;80.44
66873;HTU21D;53781;51.090;5.884;2022-11-21T00:36:37;8.52;80.40
66873;HTU21D;53781;51.090;5.884;2022-11-21T00:36:52;8.51;80.36
66873;HTU21D;53781;51.090;5.884;2022-11-21T00:37:06;8.51;80.42
66873;HTU21D;53781;51.090;5.884;2022-11-21T00:37:21;8.51;80.49
66873;HTU21D;53781;51.090;5.884;2022-11-21T00:37:36;8.50;80.43
66873;HTU21D;53781;51.090;5.884;2022-11-21T00:37:51;8.50;80.40
66873;HTU21D;53781;51.090;5.884;2022-11-21T00:38:05;8.50;80.47
66873;HTU21D;53781;51.090;5.884;2022-11-21T00:38:20;8.49;80.43
66873;HTU21D;53781;51.090;5.884;2022-11-21T00:38:37;8.52;80.45
66873;HTU21D;53781;51.090;5.884;2022-11-21T00:38:52;8.51;80.45
66873;HTU21D;53781;51.090;5.884;2022-11-21T00:39:07;8.49;80.37
66873;HTU21D;53781;51.090;5.884;2022-11-21T00:39:22;8.48;80.37
66873;HTU21D;53781;51.090;5.884;2022-11-21T00:39:37;8.49;80.36
66873;HTU21D;53781;51.090;5.884;2022-11-21T00:39:51;8.49;80.40
66873;HTU21D;53781;51.090;5.884;2022-11-21T00:40:07;8.50;80.37
66873;HTU21D;53781;51.090;5.884;2022-11-21T00:40:21;8.49;80.36
66873;HTU21D;53781;51.090;5.884;2022-11-21T00:40:36;8.49;80.34
66873;HTU21D;53781;51.090;5.884;2022-11-21T00:40:51;8.49;80.31
66873;HTU21D;53781;51.090;5.884;2022-11-21T00:41:06;8.49;80.33
66873;HTU21D;53781;51.090;5.884;2022-11-21T00:41:20;8.50;80.30
66873;HTU21D;53781;51.090;5.884;2022-11-21T00:41:35;8.50;80.34
66873;HTU21D;53781;51.090;5.884;2022-11-21T00:41:50;8.48;80.33
66873;HTU21D;53781;51.090;5.884;2022-11-21T00:42:05;8.50;80.30
66873;HTU21D;53781;51.090;5.884;2022-11-21T00:42:19;8.48;80.33
66873;HTU21D;53781;51.090;5.884;2022-11-21T00:42:34;8.49;80.27
66873;HTU21D;53781;51.090;5.884;2022-11-21T00:42:49;8.49;80.31
66873;HTU21D;53781;51.090;5.884;2022-11-21T00:43:03;8.49;80.33
66873;HTU21D;53781;51.090;5.884;2022-11-21T00:43:18;8.50;80.24
66873;HTU21D;53781;51.090;5.884;2022-11-21T00:43:33;8.48;80.35
66873;HTU21D;53781;51.090;5.884;2022-11-21T00:43:48;8.48;80.33
66873;HTU21D;53781;51.090;5.884;2022-11-21T00:44:03;8.47;80.36
66873;HTU21D;53781;51.090;5.884;2022-11-21T00:44:17;8.48;80.40
66873;HTU21D;53781;51.090;5.884;2022-11-21T00:44:32;8.48;80.44
66873;HTU21D;53781;51.090;5.884;2022-11-21T00:44:47;8.47;80.38
66873;HTU21D;53781;51.090;5.884;2022-11-21T00:45:02;8.48;80.45
66873;HTU21D;53781;51.090;5.884;2022-11-21T00:45:17;8.48;80.38
66873;HTU21D;53781;51.090;5.884;2022-11-21T00:45:32;8.49;80.37
66873;HTU21D;53781;51.090;5.884;2022-11-21T00:45:46;8.48;80.37
66873;HTU21D;53781;51.090;5.884;2022-11-21T00:46:02;8.49;80.39
66873;HTU21D;53781;51.090;5.884;2022-11-21T00:46:17;8.47;80.33
66873;HTU21D;53781;51.090;5.884;2022-11-21T00:46:32;8.47;80.34
66873;HTU21D;53781;51.090;5.884;2022-11-21T00:46:47;8.46;80.33
66873;HTU21D;53781;51.090;5.884;2022-11-21T00:47:01;8.46;80.32
66873;HTU21D;53781;51.090;5.884;2022-11-21T00:47:16;8.49;80.33
66873;HTU21D;53781;51.090;5.884;2022-11-21T00:47:31;8.48;80.33
66873;HTU21D;53781;51.090;5.884;2022-11-21T00:47:46;8.47;80.30
66873;HTU21D;53781;51.090;5.884;2022-11-21T00:48:01;8.48;80.28
66873;HTU21D;53781;51.090;5.884;2022-11-21T00:48:15;8.47;80.34
66873;HTU21D;53781;51.090;5.884;2022-11-21T00:48:30;8.48;80.31
66873;HTU21D;53781;51.090;5.884;2022-11-21T00:48:45;8.48;80.33
66873;HTU21D;53781;51.090;5.884;2022-11-21T00:49:00;8.50;80.27
66873;HTU21D;53781;51.090;5.884;2022-11-21T00:49:15;8.48;80.30
66873;HTU21D;53781;51.090;5.884;2022-11-21T00:49:30;8.47;80.30
66873;HTU21D;53781;51.090;5.884;2022-11-21T00:49:45;8.48;80.33
66873;HTU21D;53781;51.090;5.884;2022-11-21T00:49:59;8.47;80.24
66873;HTU21D;53781;51.090;5.884;2022-11-21T00:50:14;8.48;80.22
66873;HTU21D;53781;51.090;5.884;2022-11-21T00:50:29;8.48;80.22
66873;HTU21D;53781;51.090;5.884;2022-11-21T00:50:47;8.49;80.24
66873;HTU21D;53781;51.090;5.884;2022-11-21T00:51:02;8.48;80.22
66873;HTU21D;53781;51.090;5.884;2022-11-21T00:51:17;8.48;80.24
66873;HTU21D;53781;51.090;5.884;2022-11-21T00:51:32;8.48;80.20
66873;HTU21D;53781;51.090;5.884;2022-11-21T00:51:46;8.49;80.25
66873;HTU21D;53781;51.090;5.884;2022-11-21T00:52:01;8.49;80.20
66873;HTU21D;53781;51.090;5.884;2022-11-21T00:52:16;8.49;80.20
66873;HTU21D;53781;51.090;5.884;2022-11-21T00:52:31;8.50;80.16
66873;HTU21D;53781;51.090;5.884;2022-11-21T00:52:46;8.48;80.17
66873;HTU21D;53781;51.090;5.884;2022-11-21T00:53:01;8.47;80.18
66873;HTU21D;53781;51.090;5.884;2022-11-21T00:53:15;8.48;80.20
66873;HTU21D;53781;51.090;5.884;2022-11-21T00:53:30;8.49;80.16
66873;HTU21D;53781;51.090;5.884;2022-11-21T00:53:45;8.48;80.17
66873;HTU21D;53781;51.090;5.884;2022-11-21T00:54:00;8.47;80.16
66873;HTU21D;53781;51.090;5.884;2022-11-21T00:54:14;8.48;80.20
66873;HTU21D;53781;51.090;5.884;2022-11-21T00:54:29;8.46;80.11
66873;HTU21D;53781;51.090;5.884;2022-11-21T00:54:44;8.48;80.11
66873;HTU21D;53781;51.090;5.884;2022-11-21T00:54:59;8.47;80.15
66873;HTU21D;53781;51.090;5.884;2022-11-21T00:55:14;8.48;80.14
66873;HTU21D;53781;51.090;5.884;2022-11-21T00:55:28;8.47;80.14
66873;HTU21D;53781;51.090;5.884;2022-11-21T00:55:43;8.47;80.12
66873;HTU21D;53781;51.090;5.884;2022-11-21T00:55:58;8.47;80.08
66873;HTU21D;53781;51.090;5.884;2022-11-21T00:56:12;8.47;80.14
66873;HTU21D;53781;51.090;5.884;2022-11-21T00:56:27;8.45;80.11
66873;HTU21D;53781;51.090;5.884;2022-11-21T00:56:42;8.47;80.20
66873;HTU21D;53781;51.090;5.884;2022-11-21T00:56:57;8.46;80.17
66873;HTU21D;53781;51.090;5.884;2022-11-21T00:57:11;8.45;80.14
66873;HTU21D;53781;51.090;5.884;2022-11-21T00:57:26;8.44;80.09
66873;HTU21D;53781;51.090;5.884;2022-11-21T00:57:41;8.46;80.14
66873;HTU21D;53781;51.090;5.884;2022-11-21T00:57:56;8.44;80.12
66873;HTU21D;53781;51.090;5.884;2022-11-21T00:58:10;8.46;80.16
66873;HTU21D;53781;51.090;5.884;2022-11-21T00:58:26;8.47;80.20
66873;HTU21D;53781;51.090;5.884;2022-11-21T00:58:41;8.44;80.20
66873;HTU21D;53781;51.090;5.884;2022-11-21T00:58:55;8.46;80.23
66873;HTU21D;53781;51.090;5.884;2022-11-21T00:59:10;8.46;80.17
66873;HTU21D;53781;51.090;5.884;2022-11-21T00:59:25;8.44;80.19
66873;HTU21D;53781;51.090;5.884;2022-11-21T00:59:40;8.44;80.18
66873;HTU21D;53781;51.090;5.884;2022-11-21T00:59:54;8.47;80.13
66873;HTU21D;53781;51.090;5.884;2022-11-21T01:00:09;8.46;80.13
66873;HTU21D;53781;51.090;5.884;2022-11-21T01:00:24;8.45;80.11
66873;HTU21D;53781;51.090;5.884;2022-11-21T01:00:39;8.44;80.18
66873;HTU21D;53781;51.090;5.884;2022-11-21T01:01:12;8.44;80.20
66873;HTU21D;53781;51.090;5.884;2022-11-21T01:01:29;8.46;80.12
66873;HTU21D;53781;51.090;5.884;2022-11-21T01:01:43;8.43;80.13
66873;HTU21D;53781;51.090;5.884;2022-11-21T01:01:58;8.46;80.10
66873;HTU21D;53781;51.090;5.884;2022-11-21T01:02:13;8.45;80.03
66873;HTU21D;53781;51.090;5.884;2022-11-21T01:02:27;8.46;80.11
66873;HTU21D;53781;51.090;5.884;2022-11-21T01:02:43;8.44;80.04
66873;HTU21D;53781;51.090;5.884;2022-11-21T01:02:57;8.43;80.07
66873;HTU21D;53781;51.090;5.884;2022-11-21T01:03:12;8.45;80.08
66873;HTU21D;53781;51.090;5.884;2022-11-21T01:03:27;8.43;80.07
66873;HTU21D;53781;51.090;5.884;2022-11-21T01:03:42;8.44;80.07
66873;HTU21D;53781;51.090;5.884;2022-11-21T01:03:57;8.44;80.06
66873;HTU21D;53781;51.090;5.884;2022-11-21T01:04:12;8.43;80.12
66873;HTU21D;53781;51.090;5.884;2022-11-21T01:04:31;8.44;80.11
66873;HTU21D;53781;51.090;5.884;2022-11-21T01:04:46;8.43;80.17
66873;HTU21D;53781;51.090;5.884;2022-11-21T01:05:00;8.43;80.13
66873;HTU21D;53781;51.090;5.884;2022-11-21T01:05:15;8.41;80.11
66873;HTU21D;53781;51.090;5.884;2022-11-21T01:05:31;8.43;80.14
66873;HTU21D;53781;51.090;5.884;2022-11-21T01:05:46;8.42;80.07
66873;HTU21D;53781;51.090;5.884;2022-11-21T01:06:04;8.44;80.12
66873;HTU21D;53781;51.090;5.884;2022-11-21T01:06:20;8.42;80.07
66873;HTU21D;53781;51.090;5.884;2022-11-21T01:06:37;8.44;80.07
66873;HTU21D;53781;51.090;5.884;2022-11-21T01:06:52;8.42;80.04
66873;HTU21D;53781;51.090;5.884;2022-11-21T01:07:06;8.43;80.04
66873;HTU21D;53781;51.090;5.884;2022-11-21T01:07:21;8.42;80.10
66873;HTU21D;53781;51.090;5.884;2022-11-21T01:07:36;8.42;80.14
66873;HTU21D;53781;51.090;5.884;2022-11-21T01:07:50;8.42;80.14
66873;HTU21D;53781;51.090;5.884;2022-11-21T01:08:05;8.42;80.14
66873;HTU21D;53781;51.090;5.884;2022-11-21T01:08:20;8.42;80.19
66873;HTU21D;53781;51.090;5.884;2022-11-21T01:08:37;8.43;80.24
66873;HTU21D;53781;51.090;5.884;2022-11-21T01:08:52;8.42;80.11
66873;HTU21D;53781;51.090;5.884;2022-11-21T01:09:07;8.42;80.13
66873;HTU21D;53781;51.090;5.884;2022-11-21T01:09:21;8.42;80.19
66873;HTU21D;53781;51.090;5.884;2022-11-21T01:09:36;8.42;80.19
66873;HTU21D;53781;51.090;5.884;2022-11-21T01:09:51;8.41;80.11
66873;HTU21D;53781;51.090;5.884;2022-11-21T01:10:06;8.42;80.20
66873;HTU21D;53781;51.090;5.884;2022-11-21T01:10:21;8.43;80.23
66873;HTU21D;53781;51.090;5.884;2022-11-21T01:10:36;8.41;80.13
66873;HTU21D;53781;51.090;5.884;2022-11-21T01:10:50;8.43;80.11
66873;HTU21D;53781;51.090;5.884;2022-11-21T01:11:08;8.41;80.13
66873;HTU21D;53781;51.090;5.884;2022-11-21T01:11:23;8.43;80.11
66873;HTU21D;53781;51.090;5.884;2022-11-21T01:11:38;8.39;80.14
66873;HTU21D;53781;51.090;5.884;2022-11-21T01:11:53;8.41;80.07
66873;HTU21D;53781;51.090;5.884;2022-11-21T01:12:08;8.41;80.06
66873;HTU21D;53781;51.090;5.884;2022-11-21T01:12:23;8.41;80.07
66873;HTU21D;53781;51.090;5.884;2022-11-21T01:12:37;8.41;80.04
66873;HTU21D;53781;51.090;5.884;2022-11-21T01:12:52;8.41;80.01
66873;HTU21D;53781;51.090;5.884;2022-11-21T01:13:07;8.42;80.05
66873;HTU21D;53781;51.090;5.884;2022-11-21T01:13:21;8.41;80.01
66873;HTU21D;53781;51.090;5.884;2022-11-21T01:13:36;8.41;80.05
66873;HTU21D;53781;51.090;5.884;2022-11-21T01:13:52;8.39;80.06
66873;HTU21D;53781;51.090;5.884;2022-11-21T01:14:08;8.39;80.07
66873;HTU21D;53781;51.090;5.884;2022-11-21T01:14:23;8.41;80.04
66873;HTU21D;53781;51.090;5.884;2022-11-21T01:14:38;8.41;80.04
66873;HTU21D;53781;51.090;5.884;2022-11-21T01:14:53;8.42;79.99
66873;HTU21D;53781;51.090;5.884;2022-11-21T01:15:08;8.39;80.11
66873;HTU21D;53781;51.090;5.884;2022-11-21T01:15:22;8.39;79.98
66873;HTU21D;53781;51.090;5.884;2022-11-21T01:15:37;8.41;80.01
66873;HTU21D;53781;51.090;5.884;2022-11-21T01:15:52;8.42;80.02
66873;HTU21D;53781;51.090;5.884;2022-11-21T01:16:10;8.41;79.98
66873;HTU21D;53781;51.090;5.884;2022-11-21T01:16:27;8.39;79.92
66873;HTU21D;53781;51.090;5.884;2022-11-21T01:16:42;8.41;80.00
66873;HTU21D;53781;51.090;5.884;2022-11-21T01:16:57;8.42;79.98
66873;HTU21D;53781;51.090;5.884;2022-11-21T01:17:12;8.39;79.97
66873;HTU21D;53781;51.090;5.884;2022-11-21T01:17:26;8.41;79.96
66873;HTU21D;53781;51.090;5.884;2022-11-21T01:17:41;8.41;79.99
66873;HTU21D;53781;51.090;5.884;2022-11-21T01:17:56;8.38;80.00
66873;HTU21D;53781;51.090;5.884;2022-11-21T01:18:11;8.39;79.98
66873;HTU21D;53781;51.090;5.884;2022-11-21T01:18:26;8.39;79.97
66873;HTU21D;53781;51.090;5.884;2022-11-21T01:18:41;8.39;79.97
66873;HTU21D;53781;51.090;5.884;2022-11-21T01:18:56;8.41;79.92
66873;HTU21D;53781;51.090;5.884;2022-11-21T01:19:11;8.41;79.94
66873;HTU21D;53781;51.090;5.884;2022-11-21T01:19:26;8.42;79.95
66873;HTU21D;53781;51.090;5.884;2022-11-21T01:19:41;8.39;79.91
66873;HTU21D;53781;51.090;5.884;2022-11-21T01:19:56;8.39;79.91
66873;HTU21D;53781;51.090;5.884;2022-11-21T01:20:10;8.39;79.90
66873;HTU21D;53781;51.090;5.884;2022-11-21T01:20:25;8.39;79.85
66873;HTU21D;53781;51.090;5.884;2022-11-21T01:20:40;8.38;79.88
66873;HTU21D;53781;51.090;5.884;2022-11-21T01:21:07;8.38;79.84
66873;HTU21D;53781;51.090;5.884;2022-11-21T01:21:29;8.39;79.95
66873;HTU21D;53781;51.090;5.884;2022-11-21T01:21:44;8.37;79.88
66873;HTU21D;53781;51.090;5.884;2022-11-21T01:21:59;8.38;79.94
66873;HTU21D;53781;51.090;5.884;2022-11-21T01:22:14;8.37;79.83
66873;HTU21D;53781;51.090;5.884;2022-11-21T01:22:28;8.37;79.88
66873;HTU21D;53781;51.090;5.884;2022-11-21T01:22:43;8.38;79.89
66873;HTU21D;53781;51.090;5.884;2022-11-21T01:22:58;8.37;79.88
66873;HTU21D;53781;51.090;5.884;2022-11-21T01:23:13;8.38;79.88
66873;HTU21D;53781;51.090;5.884;2022-11-21T01:23:27;8.37;79.86
66873;HTU21D;53781;51.090;5.884;2022-11-21T01:23:44;8.37;79.95
66873;HTU21D;53781;51.090;5.884;2022-11-21T01:24:00;8.37;79.94
66873;HTU21D;53781;51.090;5.884;2022-11-21T01:24:15;8.37;79.95
66873;HTU21D;53781;51.090;5.884;2022-11-21T01:24:29;8.37;79.92
66873;HTU21D;53781;51.090;5.884;2022-11-21T01:24:45;8.38;79.92
66873;HTU21D;53781;51.090;5.884;2022-11-21T01:25:00;8.37;79.85
66873;HTU21D;53781;51.090;5.884;2022-11-21T01:25:14;8.37;79.96
66873;HTU21D;53781;51.090;5.884;2022-11-21T01:25:32;8.38;80.00
66873;HTU21D;53781;51.090;5.884;2022-11-21T01:25:47;8.38;80.07
66873;HTU21D;53781;51.090;5.884;2022-11-21T01:26:08;8.37;80.08
66873;HTU21D;53781;51.090;5.884;2022-11-21T01:26:27;8.38;80.04
66873;HTU21D;53781;51.090;5.884;2022-11-21T01:26:42;8.36;80.12
66873;HTU21D;53781;51.090;5.884;2022-11-21T01:26:56;8.38;80.09
66873;HTU21D;53781;51.090;5.884;2022-11-21T01:27:11;8.38;80.07
66873;HTU21D;53781;51.090;5.884;2022-11-21T01:27:26;8.38;80.14
66873;HTU21D;53781;51.090;5.884;2022-11-21T01:27:40;8.37;80.07
66873;HTU21D;53781;51.090;5.884;2022-11-21T01:27:55;8.41;80.02
66873;HTU21D;53781;51.090;5.884;2022-11-21T01:28:10;8.41;80.09
66873;HTU21D;53781;51.090;5.884;2022-11-21T01:28:24;8.41;80.17
66873;HTU21D;53781;51.090;5.884;2022-11-21T01:28:40;8.42;80.04
66873;HTU21D;53781;51.090;5.884;2022-11-21T01:28:56;8.42;80.05
66873;HTU21D;53781;51.090;5.884;2022-11-21T01:29:11;8.41;79.99
66873;HTU21D;53781;51.090;5.884;2022-11-21T01:29:27;8.42;79.98
66873;HTU21D;53781;51.090;5.884;2022-11-21T01:29:42;8.42;80.00
66873;HTU21D;53781;51.090;5.884;2022-11-21T01:29:56;8.42;79.98
66873;HTU21D;53781;51.090;5.884;2022-11-21T01:30:11;8.42;79.95
66873;HTU21D;53781;51.090;5.884;2022-11-21T01:30:27;8.39;79.96
66873;HTU21D;53781;51.090;5.884;2022-11-21T01:30:42;8.41;79.92
66873;HTU21D;53781;51.090;5.884;2022-11-21T01:31:25;8.41;79.98
66873;HTU21D;53781;51.090;5.884;2022-11-21T01:31:40;8.42;80.01
66873;HTU21D;53781;51.090;5.884;2022-11-21T01:31:55;8.41;79.95
66873;HTU21D;53781;51.090;5.884;2022-11-21T01:32:09;8.42;79.96
66873;HTU21D;53781;51.090;5.884;2022-11-21T01:32:24;8.41;80.05
66873;HTU21D;53781;51.090;5.884;2022-11-21T01:32:39;8.43;79.97
66873;HTU21D;53781;51.090;5.884;2022-11-21T01:32:54;8.39;80.03
66873;HTU21D;53781;51.090;5.884;2022-11-21T01:33:08;8.41;80.00
66873;HTU21D;53781;51.090;5.884;2022-11-21T01:33:23;8.42;80.01
66873;HTU21D;53781;51.090;5.884;2022-11-21T01:33:40;8.42;79.93
66873;HTU21D;53781;51.090;5.884;2022-11-21T01:33:59;8.41;79.90
66873;HTU21D;53781;51.090;5.884;2022-11-21T01:34:14;8.45;79.96
66873;HTU21D;53781;51.090;5.884;2022-11-21T01:34:29;8.42;79.96
66873;HTU21D;53781;51.090;5.884;2022-11-21T01:34:43;8.43;79.99
66873;HTU21D;53781;51.090;5.884;2022-11-21T01:34:58;8.42;80.01
66873;HTU21D;53781;51.090;5.884;2022-11-21T01:35:13;8.42;79.99
66873;HTU21D;53781;51.090;5.884;2022-11-21T01:35:28;8.42;79.95
66873;HTU21D;53781;51.090;5.884;2022-11-21T01:35:42;8.43;79.93
66873;HTU21D;53781;51.090;5.884;2022-11-21T01:36:07;8.42;80.00
66873;HTU21D;53781;51.090;5.884;2022-11-21T01:36:27;8.42;79.98
66873;HTU21D;53781;51.090;5.884;2022-11-21T01:36:42;8.41;80.04
66873;HTU21D;53781;51.090;5.884;2022-11-21T01:36:57;8.42;80.00
66873;HTU21D;53781;51.090;5.884;2022-11-21T01:37:12;8.41;79.91
66873;HTU21D;53781;51.090;5.884;2022-11-21T01:37:27;8.41;79.95